sensor_id;sensor_type;location;lat;lon;timestamp;P1;durP1;ratioP1;P2;durP2;ratioP2
13040;SDS011;6587;42.728;23.288;2023-07-29T00:00:08;6.27;;;4.20;;
13040;SDS011;6587;42.728;23.288;2023-07-29T00:02:42;5.53;;;4.33;;
13040;SDS011;6587;42.728;23.288;2023-07-29T00:05:09;6.73;;;4.00;;
13040;SDS011;6587;42.728;23.288;2023-07-29T00:07:36;6.20;;;3.90;;
13040;SDS011;6587;42.728;23.288;2023-07-29T00:10:03;4.47;;;3.83;;
13040;SDS011;6587;42.728;23.288;2023-07-29T00:12:31;7.47;;;3.80;;
13040;SDS011;6587;42.728;23.288;2023-07-29T00:14:58;4.37;;;3.97;;
13040;SDS011;6587;42.728;23.288;2023-07-29T00:17:24;4.17;;;3.77;;
13040;SDS011;6587;42.728;23.288;2023-07-29T00:19:53;4.50;;;3.77;;
13040;SDS011;6587;42.728;23.288;2023-07-29T00:22:20;5.77;;;3.80;;
13040;SDS011;6587;42.728;23.288;2023-07-29T00:24:50;3.90;;;3.53;;
13040;SDS011;6587;42.728;23.288;2023-07-29T00:27:18;6.50;;;3.70;;
13040;SDS011;6587;42.728;23.288;2023-07-29T00:29:45;6.00;;;3.80;;
13040;SDS011;6587;42.728;23.288;2023-07-29T00:32:13;4.10;;;3.70;;
13040;SDS011;6587;42.728;23.288;2023-07-29T00:34:40;5.03;;;4.00;;
13040;SDS011;6587;42.728;23.288;2023-07-29T00:37:08;5.80;;;3.97;;
13040;SDS011;6587;42.728;23.288;2023-07-29T00:39:36;4.80;;;3.70;;
13040;SDS011;6587;42.728;23.288;2023-07-29T00:42:03;4.00;;;3.67;;
13040;SDS011;6587;42.728;23.288;2023-07-29T00:44:30;3.87;;;3.47;;
13040;SDS011;6587;42.728;23.288;2023-07-29T00:47:00;4.13;;;3.73;;
13040;SDS011;6587;42.728;23.288;2023-07-29T00:49:28;6.33;;;3.60;;
13040;SDS011;6587;42.728;23.288;2023-07-29T00:51:55;7.07;;;3.60;;
13040;SDS011;6587;42.728;23.288;2023-07-29T00:54:25;6.53;;;3.83;;
13040;SDS011;6587;42.728;23.288;2023-07-29T00:56:52;6.83;;;3.67;;
13040;SDS011;6587;42.728;23.288;2023-07-29T00:59:19;7.07;;;4.07;;
13040;SDS011;6587;42.728;23.288;2023-07-29T01:01:46;6.47;;;3.67;;
13040;SDS011;6587;42.728;23.288;2023-07-29T01:04:14;5.13;;;4.10;;
13040;SDS011;6587;42.728;23.288;2023-07-29T01:06:41;5.93;;;4.20;;
13040;SDS011;6587;42.728;23.288;2023-07-29T01:09:18;6.50;;;3.60;;
13040;SDS011;6587;42.728;23.288;2023-07-29T01:11:55;6.47;;;3.60;;
13040;SDS011;6587;42.728;23.288;2023-07-29T01:14:29;5.03;;;3.70;;
13040;SDS011;6587;42.728;23.288;2023-07-29T01:17:03;9.10;;;5.00;;
13040;SDS011;6587;42.728;23.288;2023-07-29T01:19:41;6.13;;;4.10;;
13040;SDS011;6587;42.728;23.288;2023-07-29T01:22:14;4.90;;;4.20;;
13040;SDS011;6587;42.728;23.288;2023-07-29T01:24:44;4.47;;;4.03;;
13040;SDS011;6587;42.728;23.288;2023-07-29T01:27:11;5.80;;;4.20;;
13040;SDS011;6587;42.728;23.288;2023-07-29T01:29:39;7.10;;;4.30;;
13040;SDS011;6587;42.728;23.288;2023-07-29T01:32:07;6.10;;;4.53;;
13040;SDS011;6587;42.728;23.288;2023-07-29T01:34:41;6.30;;;4.27;;
13040;SDS011;6587;42.728;23.288;2023-07-29T01:37:16;4.70;;;4.17;;
13040;SDS011;6587;42.728;23.288;2023-07-29T01:39:51;5.67;;;4.10;;
13040;SDS011;6587;42.728;23.288;2023-07-29T01:42:23;5.50;;;4.30;;
13040;SDS011;6587;42.728;23.288;2023-07-29T01:44:51;5.73;;;4.00;;
13040;SDS011;6587;42.728;23.288;2023-07-29T01:47:18;6.60;;;4.10;;
13040;SDS011;6587;42.728;23.288;2023-07-29T01:49:45;4.53;;;4.13;;
13040;SDS011;6587;42.728;23.288;2023-07-29T01:52:13;5.20;;;4.67;;
13040;SDS011;6587;42.728;23.288;2023-07-29T01:54:40;5.17;;;4.23;;
13040;SDS011;6587;42.728;23.288;2023-07-29T01:57:08;4.80;;;4.20;;
13040;SDS011;6587;42.728;23.288;2023-07-29T01:59:35;6.47;;;4.27;;
13040;SDS011;6587;42.728;23.288;2023-07-29T02:02:02;6.53;;;4.23;;
13040;SDS011;6587;42.728;23.288;2023-07-29T02:04:29;4.87;;;3.90;;
13040;SDS011;6587;42.728;23.288;2023-07-29T02:06:56;6.30;;;3.87;;
13040;SDS011;6587;42.728;23.288;2023-07-29T02:09:23;4.67;;;4.00;;
13040;SDS011;6587;42.728;23.288;2023-07-29T02:11:51;7.90;;;4.93;;
13040;SDS011;6587;42.728;23.288;2023-07-29T02:14:19;4.80;;;4.20;;
13040;SDS011;6587;42.728;23.288;2023-07-29T02:16:46;5.37;;;4.30;;
13040;SDS011;6587;42.728;23.288;2023-07-29T02:19:13;7.33;;;4.50;;
13040;SDS011;6587;42.728;23.288;2023-07-29T02:21:40;7.03;;;4.60;;
13040;SDS011;6587;42.728;23.288;2023-07-29T02:24:07;7.10;;;4.50;;
13040;SDS011;6587;42.728;23.288;2023-07-29T02:26:34;5.27;;;4.30;;
13040;SDS011;6587;42.728;23.288;2023-07-29T02:29:01;5.37;;;4.40;;
13040;SDS011;6587;42.728;23.288;2023-07-29T02:31:29;7.53;;;4.73;;
13040;SDS011;6587;42.728;23.288;2023-07-29T02:33:56;7.93;;;4.67;;
13040;SDS011;6587;42.728;23.288;2023-07-29T02:36:23;6.97;;;5.33;;
13040;SDS011;6587;42.728;23.288;2023-07-29T02:38:50;6.37;;;4.70;;
13040;SDS011;6587;42.728;23.288;2023-07-29T02:41:18;7.37;;;5.27;;
13040;SDS011;6587;42.728;23.288;2023-07-29T02:43:47;6.47;;;5.10;;
13040;SDS011;6587;42.728;23.288;2023-07-29T02:46:15;6.73;;;4.87;;
13040;SDS011;6587;42.728;23.288;2023-07-29T02:48:44;7.40;;;5.73;;
13040;SDS011;6587;42.728;23.288;2023-07-29T02:51:11;14.13;;;5.73;;
13040;SDS011;6587;42.728;23.288;2023-07-29T02:53:38;12.10;;;6.20;;
13040;SDS011;6587;42.728;23.288;2023-07-29T02:56:05;13.17;;;6.17;;
13040;SDS011;6587;42.728;23.288;2023-07-29T02:58:35;9.27;;;5.70;;
13040;SDS011;6587;42.728;23.288;2023-07-29T03:01:02;9.27;;;5.43;;
13040;SDS011;6587;42.728;23.288;2023-07-29T03:03:30;9.80;;;4.93;;
13040;SDS011;6587;42.728;23.288;2023-07-29T03:06:01;6.33;;;4.43;;
13040;SDS011;6587;42.728;23.288;2023-07-29T03:08:29;7.73;;;4.90;;
13040;SDS011;6587;42.728;23.288;2023-07-29T03:10:56;18.13;;;6.43;;
13040;SDS011;6587;42.728;23.288;2023-07-29T03:13:24;9.77;;;5.33;;
13040;SDS011;6587;42.728;23.288;2023-07-29T03:15:51;6.80;;;4.50;;
13040;SDS011;6587;42.728;23.288;2023-07-29T03:18:17;9.07;;;5.40;;
13040;SDS011;6587;42.728;23.288;2023-07-29T03:20:44;5.70;;;4.57;;
13040;SDS011;6587;42.728;23.288;2023-07-29T03:23:13;5.43;;;4.67;;
13040;SDS011;6587;42.728;23.288;2023-07-29T03:25:40;8.57;;;4.70;;
13040;SDS011;6587;42.728;23.288;2023-07-29T03:28:06;7.60;;;4.73;;
13040;SDS011;6587;42.728;23.288;2023-07-29T03:30:33;7.47;;;4.50;;
13040;SDS011;6587;42.728;23.288;2023-07-29T03:33:00;5.53;;;4.40;;
13040;SDS011;6587;42.728;23.288;2023-07-29T03:35:29;6.23;;;4.60;;
13040;SDS011;6587;42.728;23.288;2023-07-29T03:37:56;6.97;;;4.30;;
13040;SDS011;6587;42.728;23.288;2023-07-29T03:40:25;9.57;;;4.77;;
13040;SDS011;6587;42.728;23.288;2023-07-29T03:42:51;7.30;;;4.40;;
13040;SDS011;6587;42.728;23.288;2023-07-29T03:45:18;7.00;;;4.40;;
13040;SDS011;6587;42.728;23.288;2023-07-29T03:47:45;8.73;;;5.30;;
13040;SDS011;6587;42.728;23.288;2023-07-29T03:50:12;5.67;;;4.47;;
13040;SDS011;6587;42.728;23.288;2023-07-29T03:52:39;4.97;;;4.40;;
13040;SDS011;6587;42.728;23.288;2023-07-29T03:55:07;8.20;;;4.73;;
13040;SDS011;6587;42.728;23.288;2023-07-29T03:57:35;7.50;;;5.00;;
13040;SDS011;6587;42.728;23.288;2023-07-29T04:00:03;7.10;;;4.47;;
13040;SDS011;6587;42.728;23.288;2023-07-29T04:02:40;7.80;;;5.20;;
13040;SDS011;6587;42.728;23.288;2023-07-29T04:05:10;7.83;;;5.80;;
13040;SDS011;6587;42.728;23.288;2023-07-29T04:07:37;10.50;;;5.80;;
13040;SDS011;6587;42.728;23.288;2023-07-29T04:10:05;9.33;;;5.63;;
13040;SDS011;6587;42.728;23.288;2023-07-29T04:12:33;12.23;;;5.60;;
13040;SDS011;6587;42.728;23.288;2023-07-29T04:15:01;8.07;;;5.43;;
13040;SDS011;6587;42.728;23.288;2023-07-29T04:17:29;6.67;;;4.47;;
13040;SDS011;6587;42.728;23.288;2023-07-29T04:19:56;8.07;;;5.37;;
13040;SDS011;6587;42.728;23.288;2023-07-29T04:22:28;7.47;;;4.53;;
13040;SDS011;6587;42.728;23.288;2023-07-29T04:24:55;8.33;;;5.20;;
13040;SDS011;6587;42.728;23.288;2023-07-29T04:27:22;7.07;;;5.53;;
13040;SDS011;6587;42.728;23.288;2023-07-29T04:29:49;7.67;;;5.10;;
13040;SDS011;6587;42.728;23.288;2023-07-29T04:32:17;10.87;;;5.37;;
13040;SDS011;6587;42.728;23.288;2023-07-29T04:34:44;7.60;;;5.47;;
13040;SDS011;6587;42.728;23.288;2023-07-29T04:37:11;7.80;;;5.57;;
13040;SDS011;6587;42.728;23.288;2023-07-29T04:39:37;7.67;;;5.20;;
13040;SDS011;6587;42.728;23.288;2023-07-29T04:42:05;8.43;;;5.07;;
13040;SDS011;6587;42.728;23.288;2023-07-29T04:44:32;7.73;;;5.83;;
13040;SDS011;6587;42.728;23.288;2023-07-29T04:46:59;8.63;;;5.47;;
13040;SDS011;6587;42.728;23.288;2023-07-29T04:49:27;8.80;;;6.07;;
13040;SDS011;6587;42.728;23.288;2023-07-29T04:51:54;9.47;;;5.20;;
13040;SDS011;6587;42.728;23.288;2023-07-29T04:54:21;8.13;;;5.97;;
13040;SDS011;6587;42.728;23.288;2023-07-29T04:56:48;7.87;;;5.97;;
13040;SDS011;6587;42.728;23.288;2023-07-29T04:59:16;8.93;;;6.13;;
13040;SDS011;6587;42.728;23.288;2023-07-29T05:01:43;7.90;;;5.30;;
13040;SDS011;6587;42.728;23.288;2023-07-29T05:04:10;12.43;;;6.23;;
13040;SDS011;6587;42.728;23.288;2023-07-29T05:06:38;8.10;;;6.47;;
13040;SDS011;6587;42.728;23.288;2023-07-29T05:09:14;8.63;;;5.83;;
13040;SDS011;6587;42.728;23.288;2023-07-29T05:11:42;10.70;;;6.17;;
13040;SDS011;6587;42.728;23.288;2023-07-29T05:14:10;7.57;;;6.13;;
13040;SDS011;6587;42.728;23.288;2023-07-29T05:16:37;11.27;;;6.40;;
13040;SDS011;6587;42.728;23.288;2023-07-29T05:19:04;11.77;;;6.70;;
13040;SDS011;6587;42.728;23.288;2023-07-29T05:21:31;9.23;;;6.33;;
13040;SDS011;6587;42.728;23.288;2023-07-29T05:23:59;11.40;;;6.23;;
13040;SDS011;6587;42.728;23.288;2023-07-29T05:26:27;9.13;;;6.40;;
13040;SDS011;6587;42.728;23.288;2023-07-29T05:28:53;8.43;;;6.43;;
13040;SDS011;6587;42.728;23.288;2023-07-29T05:31:21;12.03;;;6.20;;
13040;SDS011;6587;42.728;23.288;2023-07-29T05:33:48;10.60;;;6.80;;
13040;SDS011;6587;42.728;23.288;2023-07-29T05:36:15;7.63;;;5.93;;
13040;SDS011;6587;42.728;23.288;2023-07-29T05:38:42;13.00;;;6.63;;
13040;SDS011;6587;42.728;23.288;2023-07-29T05:41:10;8.00;;;6.37;;
13040;SDS011;6587;42.728;23.288;2023-07-29T05:43:37;10.83;;;6.03;;
13040;SDS011;6587;42.728;23.288;2023-07-29T05:46:04;8.73;;;6.17;;
13040;SDS011;6587;42.728;23.288;2023-07-29T05:48:31;13.23;;;6.67;;
13040;SDS011;6587;42.728;23.288;2023-07-29T05:50:59;9.10;;;6.13;;
13040;SDS011;6587;42.728;23.288;2023-07-29T05:53:26;12.93;;;7.00;;
13040;SDS011;6587;42.728;23.288;2023-07-29T05:55:53;8.77;;;6.40;;
13040;SDS011;6587;42.728;23.288;2023-07-29T05:58:21;9.40;;;6.07;;
13040;SDS011;6587;42.728;23.288;2023-07-29T06:00:48;8.73;;;7.10;;
13040;SDS011;6587;42.728;23.288;2023-07-29T06:03:15;9.10;;;6.80;;
13040;SDS011;6587;42.728;23.288;2023-07-29T06:05:42;12.17;;;6.50;;
13040;SDS011;6587;42.728;23.288;2023-07-29T06:08:09;7.63;;;6.80;;
13040;SDS011;6587;42.728;23.288;2023-07-29T06:10:36;9.30;;;6.17;;
13040;SDS011;6587;42.728;23.288;2023-07-29T06:13:03;7.63;;;6.37;;
13040;SDS011;6587;42.728;23.288;2023-07-29T06:15:31;7.87;;;6.47;;
13040;SDS011;6587;42.728;23.288;2023-07-29T06:17:58;8.70;;;6.57;;
13040;SDS011;6587;42.728;23.288;2023-07-29T06:20:26;13.73;;;8.93;;
13040;SDS011;6587;42.728;23.288;2023-07-29T06:22:53;10.93;;;7.07;;
13040;SDS011;6587;42.728;23.288;2023-07-29T06:25:19;11.03;;;6.80;;
13040;SDS011;6587;42.728;23.288;2023-07-29T06:27:47;8.67;;;6.87;;
13040;SDS011;6587;42.728;23.288;2023-07-29T06:30:14;11.50;;;7.27;;
13040;SDS011;6587;42.728;23.288;2023-07-29T06:32:42;9.23;;;6.43;;
13040;SDS011;6587;42.728;23.288;2023-07-29T06:35:09;8.87;;;6.40;;
13040;SDS011;6587;42.728;23.288;2023-07-29T06:37:36;9.23;;;5.87;;
13040;SDS011;6587;42.728;23.288;2023-07-29T06:40:03;8.63;;;6.60;;
13040;SDS011;6587;42.728;23.288;2023-07-29T06:42:31;8.80;;;6.50;;
13040;SDS011;6587;42.728;23.288;2023-07-29T06:44:58;7.67;;;6.60;;
13040;SDS011;6587;42.728;23.288;2023-07-29T06:47:24;9.77;;;6.20;;
13040;SDS011;6587;42.728;23.288;2023-07-29T06:49:53;8.50;;;6.50;;
13040;SDS011;6587;42.728;23.288;2023-07-29T06:52:20;8.27;;;6.47;;
13040;SDS011;6587;42.728;23.288;2023-07-29T06:54:47;9.43;;;6.37;;
13040;SDS011;6587;42.728;23.288;2023-07-29T06:57:14;8.80;;;6.47;;
13040;SDS011;6587;42.728;23.288;2023-07-29T06:59:41;12.18;;;7.00;;
13040;SDS011;6587;42.728;23.288;2023-07-29T07:02:07;9.02;;;6.63;;
13040;SDS011;6587;42.728;23.288;2023-07-29T07:04:34;12.30;;;8.20;;
13040;SDS011;6587;42.728;23.288;2023-07-29T07:07:03;9.47;;;6.87;;
13040;SDS011;6587;42.728;23.288;2023-07-29T07:09:30;8.95;;;7.00;;
13040;SDS011;6587;42.728;23.288;2023-07-29T07:11:57;8.60;;;6.50;;
13040;SDS011;6587;42.728;23.288;2023-07-29T07:14:23;12.13;;;7.50;;
13040;SDS011;6587;42.728;23.288;2023-07-29T07:16:50;9.23;;;6.50;;
13040;SDS011;6587;42.728;23.288;2023-07-29T07:19:17;8.05;;;6.50;;
13040;SDS011;6587;42.728;23.288;2023-07-29T07:21:44;10.48;;;7.03;;
13040;SDS011;6587;42.728;23.288;2023-07-29T07:24:12;9.65;;;6.80;;
13040;SDS011;6587;42.728;23.288;2023-07-29T07:26:39;7.75;;;6.95;;
13040;SDS011;6587;42.728;23.288;2023-07-29T07:29:06;13.23;;;7.50;;
13040;SDS011;6587;42.728;23.288;2023-07-29T07:31:33;11.05;;;7.45;;
13040;SDS011;6587;42.728;23.288;2023-07-29T07:34:00;8.23;;;6.47;;
13040;SDS011;6587;42.728;23.288;2023-07-29T07:36:29;10.25;;;7.18;;
13040;SDS011;6587;42.728;23.288;2023-07-29T07:38:56;7.70;;;6.15;;
13040;SDS011;6587;42.728;23.288;2023-07-29T07:41:24;9.85;;;5.97;;
13040;SDS011;6587;42.728;23.288;2023-07-29T07:43:51;7.20;;;5.72;;
13040;SDS011;6587;42.728;23.288;2023-07-29T07:46:17;8.68;;;5.70;;
13040;SDS011;6587;42.728;23.288;2023-07-29T07:48:44;10.30;;;5.60;;
13040;SDS011;6587;42.728;23.288;2023-07-29T07:51:11;13.07;;;5.95;;
13040;SDS011;6587;42.728;23.288;2023-07-29T07:53:39;9.45;;;6.47;;
13040;SDS011;6587;42.728;23.288;2023-07-29T07:56:06;7.90;;;5.28;;
13040;SDS011;6587;42.728;23.288;2023-07-29T07:58:34;6.68;;;5.55;;
13040;SDS011;6587;42.728;23.288;2023-07-29T08:01:01;6.53;;;4.78;;
13040;SDS011;6587;42.728;23.288;2023-07-29T08:03:29;9.60;;;4.93;;
13040;SDS011;6587;42.728;23.288;2023-07-29T08:05:56;6.25;;;4.43;;
13040;SDS011;6587;42.728;23.288;2023-07-29T08:08:23;4.85;;;4.07;;
13040;SDS011;6587;42.728;23.288;2023-07-29T08:10:50;5.00;;;4.22;;
13040;SDS011;6587;42.728;23.288;2023-07-29T08:13:18;4.78;;;3.72;;
13040;SDS011;6587;42.728;23.288;2023-07-29T08:15:47;5.88;;;4.32;;
13040;SDS011;6587;42.728;23.288;2023-07-29T08:18:14;4.60;;;4.20;;
13040;SDS011;6587;42.728;23.288;2023-07-29T08:20:41;5.45;;;4.40;;
13040;SDS011;6587;42.728;23.288;2023-07-29T08:23:08;5.57;;;4.00;;
13040;SDS011;6587;42.728;23.288;2023-07-29T08:25:34;4.90;;;4.20;;
13040;SDS011;6587;42.728;23.288;2023-07-29T08:28:01;7.32;;;4.60;;
13040;SDS011;6587;42.728;23.288;2023-07-29T08:30:28;7.90;;;5.03;;
13040;SDS011;6587;42.728;23.288;2023-07-29T08:32:57;7.13;;;4.90;;
13040;SDS011;6587;42.728;23.288;2023-07-29T08:35:23;6.68;;;4.63;;
13040;SDS011;6587;42.728;23.288;2023-07-29T08:37:50;8.80;;;4.30;;
13040;SDS011;6587;42.728;23.288;2023-07-29T08:40:17;6.10;;;4.82;;
13040;SDS011;6587;42.728;23.288;2023-07-29T08:42:45;8.85;;;5.22;;
13040;SDS011;6587;42.728;23.288;2023-07-29T08:45:15;4.07;;;3.67;;
13040;SDS011;6587;42.728;23.288;2023-07-29T08:47:43;5.47;;;3.42;;
13040;SDS011;6587;42.728;23.288;2023-07-29T08:50:11;3.33;;;3.00;;
13040;SDS011;6587;42.728;23.288;2023-07-29T08:52:40;3.00;;;2.63;;
13040;SDS011;6587;42.728;23.288;2023-07-29T08:55:08;3.60;;;3.30;;
13040;SDS011;6587;42.728;23.288;2023-07-29T08:57:35;3.97;;;2.90;;
13040;SDS011;6587;42.728;23.288;2023-07-29T09:00:03;4.00;;;2.95;;
13040;SDS011;6587;42.728;23.288;2023-07-29T09:02:31;3.35;;;2.70;;
13040;SDS011;6587;42.728;23.288;2023-07-29T09:04:58;3.88;;;3.47;;
13040;SDS011;6587;42.728;23.288;2023-07-29T09:07:26;3.35;;;3.00;;
13040;SDS011;6587;42.728;23.288;2023-07-29T09:09:55;3.65;;;3.00;;
13040;SDS011;6587;42.728;23.288;2023-07-29T09:12:22;5.72;;;2.97;;
13040;SDS011;6587;42.728;23.288;2023-07-29T09:14:51;3.20;;;2.40;;
13040;SDS011;6587;42.728;23.288;2023-07-29T09:17:18;4.93;;;2.70;;
13040;SDS011;6587;42.728;23.288;2023-07-29T09:19:47;4.50;;;3.00;;
13040;SDS011;6587;42.728;23.288;2023-07-29T09:22:17;2.80;;;2.60;;
13040;SDS011;6587;42.728;23.288;2023-07-29T09:24:46;5.72;;;3.47;;
13040;SDS011;6587;42.728;23.288;2023-07-29T09:27:23;3.90;;;2.60;;
13040;SDS011;6587;42.728;23.288;2023-07-29T09:29:50;4.18;;;2.60;;
13040;SDS011;6587;42.728;23.288;2023-07-29T09:32:18;4.05;;;2.92;;
13040;SDS011;6587;42.728;23.288;2023-07-29T09:34:46;6.55;;;2.90;;
13040;SDS011;6587;42.728;23.288;2023-07-29T09:37:16;3.38;;;2.60;;
13040;SDS011;6587;42.728;23.288;2023-07-29T09:39:44;3.70;;;2.60;;
13040;SDS011;6587;42.728;23.288;2023-07-29T09:42:16;2.92;;;2.67;;
13040;SDS011;6587;42.728;23.288;2023-07-29T09:44:44;2.20;;;2.00;;
13040;SDS011;6587;42.728;23.288;2023-07-29T09:47:18;2.92;;;2.45;;
13040;SDS011;6587;42.728;23.288;2023-07-29T09:49:47;2.78;;;2.25;;
13040;SDS011;6587;42.728;23.288;2023-07-29T09:52:15;3.25;;;2.33;;
13040;SDS011;6587;42.728;23.288;2023-07-29T09:54:43;3.35;;;2.08;;
13040;SDS011;6587;42.728;23.288;2023-07-29T09:57:12;3.40;;;2.13;;
13040;SDS011;6587;42.728;23.288;2023-07-29T09:59:40;10.80;;;5.97;;
13040;SDS011;6587;42.728;23.288;2023-07-29T10:02:09;5.05;;;2.10;;
13040;SDS011;6587;42.728;23.288;2023-07-29T10:04:41;2.33;;;1.98;;
13040;SDS011;6587;42.728;23.288;2023-07-29T10:07:09;2.50;;;2.22;;
13040;SDS011;6587;42.728;23.288;2023-07-29T10:09:37;6.90;;;2.60;;
13040;SDS011;6587;42.728;23.288;2023-07-29T10:12:04;4.32;;;2.15;;
13040;SDS011;6587;42.728;23.288;2023-07-29T10:14:34;3.42;;;2.17;;
13040;SDS011;6587;42.728;23.288;2023-07-29T10:17:03;2.55;;;1.80;;
13040;SDS011;6587;42.728;23.288;2023-07-29T10:19:31;2.53;;;2.03;;
13040;SDS011;6587;42.728;23.288;2023-07-29T10:21:59;2.95;;;2.05;;
13040;SDS011;6587;42.728;23.288;2023-07-29T10:24:29;2.67;;;1.92;;
13040;SDS011;6587;42.728;23.288;2023-07-29T10:26:58;1.27;;;1.17;;
13040;SDS011;6587;42.728;23.288;2023-07-29T10:29:28;1.85;;;1.75;;
13040;SDS011;6587;42.728;23.288;2023-07-29T10:31:58;2.78;;;1.55;;
13040;SDS011;6587;42.728;23.288;2023-07-29T10:34:29;1.73;;;1.63;;
13040;SDS011;6587;42.728;23.288;2023-07-29T10:36:56;3.78;;;2.50;;
13040;SDS011;6587;42.728;23.288;2023-07-29T10:39:24;2.60;;;2.10;;
13040;SDS011;6587;42.728;23.288;2023-07-29T10:41:55;1.77;;;1.65;;
13040;SDS011;6587;42.728;23.288;2023-07-29T10:47:16;1.60;;;1.50;;
13040;SDS011;6587;42.728;23.288;2023-07-29T10:49:45;2.40;;;1.42;;
13040;SDS011;6587;42.728;23.288;2023-07-29T10:52:13;3.20;;;1.70;;
13040;SDS011;6587;42.728;23.288;2023-07-29T10:54:44;2.42;;;1.60;;
13040;SDS011;6587;42.728;23.288;2023-07-29T10:57:14;1.88;;;1.38;;
13040;SDS011;6587;42.728;23.288;2023-07-29T10:59:53;1.95;;;1.17;;
13040;SDS011;6587;42.728;23.288;2023-07-29T11:02:28;4.32;;;1.40;;
13040;SDS011;6587;42.728;23.288;2023-07-29T11:04:56;2.33;;;1.60;;
13040;SDS011;6587;42.728;23.288;2023-07-29T11:07:24;1.70;;;1.55;;
13040;SDS011;6587;42.728;23.288;2023-07-29T11:09:58;2.25;;;1.10;;
13040;SDS011;6587;42.728;23.288;2023-07-29T11:12:36;1.45;;;1.10;;
13040;SDS011;6587;42.728;23.288;2023-07-29T11:15:11;1.75;;;1.65;;
13040;SDS011;6587;42.728;23.288;2023-07-29T11:17:42;1.50;;;1.40;;
13040;SDS011;6587;42.728;23.288;2023-07-29T11:20:10;2.92;;;1.50;;
13040;SDS011;6587;42.728;23.288;2023-07-29T11:22:38;2.80;;;1.80;;
13040;SDS011;6587;42.728;23.288;2023-07-29T11:25:06;2.20;;;1.30;;
13040;SDS011;6587;42.728;23.288;2023-07-29T11:27:34;2.38;;;1.38;;
13040;SDS011;6587;42.728;23.288;2023-07-29T11:30:02;1.55;;;1.45;;
13040;SDS011;6587;42.728;23.288;2023-07-29T11:32:31;2.13;;;1.92;;
13040;SDS011;6587;42.728;23.288;2023-07-29T11:35:02;3.83;;;1.70;;
13040;SDS011;6587;42.728;23.288;2023-07-29T11:37:30;1.55;;;1.45;;
13040;SDS011;6587;42.728;23.288;2023-07-29T11:39:57;2.60;;;1.90;;
13040;SDS011;6587;42.728;23.288;2023-07-29T11:42:24;3.20;;;1.65;;
13040;SDS011;6587;42.728;23.288;2023-07-29T11:44:53;1.52;;;1.40;;
13040;SDS011;6587;42.728;23.288;2023-07-29T11:47:22;1.80;;;1.60;;
13040;SDS011;6587;42.728;23.288;2023-07-29T11:49:49;2.05;;;1.40;;
13040;SDS011;6587;42.728;23.288;2023-07-29T11:52:17;2.42;;;1.40;;
13040;SDS011;6587;42.728;23.288;2023-07-29T11:54:45;2.15;;;1.60;;
13040;SDS011;6587;42.728;23.288;2023-07-29T11:57:14;2.33;;;1.88;;
13040;SDS011;6587;42.728;23.288;2023-07-29T11:59:42;2.05;;;1.70;;
13040;SDS011;6587;42.728;23.288;2023-07-29T12:02:10;2.10;;;1.42;;
13040;SDS011;6587;42.728;23.288;2023-07-29T12:04:38;2.28;;;1.60;;
13040;SDS011;6587;42.728;23.288;2023-07-29T12:07:07;2.10;;;1.52;;
13040;SDS011;6587;42.728;23.288;2023-07-29T12:09:36;3.67;;;1.70;;
13040;SDS011;6587;42.728;23.288;2023-07-29T12:12:04;1.88;;;1.52;;
13040;SDS011;6587;42.728;23.288;2023-07-29T12:14:32;1.30;;;1.20;;
13040;SDS011;6587;42.728;23.288;2023-07-29T12:16:59;1.92;;;1.40;;
13040;SDS011;6587;42.728;23.288;2023-07-29T12:19:31;1.45;;;1.13;;
13040;SDS011;6587;42.728;23.288;2023-07-29T12:21:58;2.45;;;1.60;;
13040;SDS011;6587;42.728;23.288;2023-07-29T12:24:25;1.60;;;1.50;;
13040;SDS011;6587;42.728;23.288;2023-07-29T12:26:53;2.75;;;1.60;;
13040;SDS011;6587;42.728;23.288;2023-07-29T12:29:20;2.10;;;1.50;;
13040;SDS011;6587;42.728;23.288;2023-07-29T12:31:48;3.13;;;1.75;;
13040;SDS011;6587;42.728;23.288;2023-07-29T12:34:19;3.10;;;1.48;;
13040;SDS011;6587;42.728;23.288;2023-07-29T12:36:47;2.92;;;1.35;;
13040;SDS011;6587;42.728;23.288;2023-07-29T12:39:20;1.40;;;1.30;;
13040;SDS011;6587;42.728;23.288;2023-07-29T12:41:50;1.60;;;1.50;;
13040;SDS011;6587;42.728;23.288;2023-07-29T12:44:18;1.80;;;1.17;;
13040;SDS011;6587;42.728;23.288;2023-07-29T12:46:46;1.55;;;1.33;;
13040;SDS011;6587;42.728;23.288;2023-07-29T12:49:12;2.92;;;1.83;;
13040;SDS011;6587;42.728;23.288;2023-07-29T12:51:40;1.63;;;1.40;;
13040;SDS011;6587;42.728;23.288;2023-07-29T12:54:07;2.25;;;1.70;;
13040;SDS011;6587;42.728;23.288;2023-07-29T12:56:34;1.42;;;1.33;;
13040;SDS011;6587;42.728;23.288;2023-07-29T12:59:01;4.72;;;1.50;;
13040;SDS011;6587;42.728;23.288;2023-07-29T13:01:30;1.80;;;1.70;;
13040;SDS011;6587;42.728;23.288;2023-07-29T13:03:57;1.98;;;1.60;;
13040;SDS011;6587;42.728;23.288;2023-07-29T13:06:24;2.08;;;1.35;;
13040;SDS011;6587;42.728;23.288;2023-07-29T13:08:51;2.42;;;1.50;;
13040;SDS011;6587;42.728;23.288;2023-07-29T13:11:18;2.67;;;1.92;;
13040;SDS011;6587;42.728;23.288;2023-07-29T13:13:45;5.75;;;1.65;;
13040;SDS011;6587;42.728;23.288;2023-07-29T13:16:12;1.90;;;1.40;;
13040;SDS011;6587;42.728;23.288;2023-07-29T13:18:40;1.75;;;1.58;;
13040;SDS011;6587;42.728;23.288;2023-07-29T13:21:07;2.50;;;1.60;;
13040;SDS011;6587;42.728;23.288;2023-07-29T13:23:34;1.50;;;1.40;;
13040;SDS011;6587;42.728;23.288;2023-07-29T13:26:01;1.55;;;1.30;;
13040;SDS011;6587;42.728;23.288;2023-07-29T13:28:28;6.10;;;2.47;;
13040;SDS011;6587;42.728;23.288;2023-07-29T13:30:55;4.05;;;1.70;;
13040;SDS011;6587;42.728;23.288;2023-07-29T13:33:22;3.95;;;1.60;;
13040;SDS011;6587;42.728;23.288;2023-07-29T13:35:50;5.10;;;1.80;;
13040;SDS011;6587;42.728;23.288;2023-07-29T13:38:17;3.47;;;1.60;;
13040;SDS011;6587;42.728;23.288;2023-07-29T13:40:45;1.80;;;1.70;;
13040;SDS011;6587;42.728;23.288;2023-07-29T13:43:12;3.20;;;1.88;;
13040;SDS011;6587;42.728;23.288;2023-07-29T13:45:38;2.10;;;1.90;;
13040;SDS011;6587;42.728;23.288;2023-07-29T13:48:05;5.40;;;1.98;;
13040;SDS011;6587;42.728;23.288;2023-07-29T13:50:32;3.72;;;2.05;;
13040;SDS011;6587;42.728;23.288;2023-07-29T13:53:00;3.67;;;2.13;;
13040;SDS011;6587;42.728;23.288;2023-07-29T13:55:27;2.00;;;1.70;;
13040;SDS011;6587;42.728;23.288;2023-07-29T13:57:54;2.17;;;1.83;;
13040;SDS011;6587;42.728;23.288;2023-07-29T14:00:21;2.03;;;1.73;;
13040;SDS011;6587;42.728;23.288;2023-07-29T14:02:48;3.30;;;2.05;;
13040;SDS011;6587;42.728;23.288;2023-07-29T14:05:15;5.32;;;2.00;;
13040;SDS011;6587;42.728;23.288;2023-07-29T14:07:42;4.88;;;2.08;;
13040;SDS011;6587;42.728;23.288;2023-07-29T14:10:10;3.45;;;1.95;;
13040;SDS011;6587;42.728;23.288;2023-07-29T14:12:37;2.40;;;2.20;;
13040;SDS011;6587;42.728;23.288;2023-07-29T14:15:04;3.78;;;2.00;;
13040;SDS011;6587;42.728;23.288;2023-07-29T14:17:32;2.50;;;2.00;;
13040;SDS011;6587;42.728;23.288;2023-07-29T14:19:59;2.00;;;1.85;;
13040;SDS011;6587;42.728;23.288;2023-07-29T14:22:25;3.90;;;1.98;;
13040;SDS011;6587;42.728;23.288;2023-07-29T14:24:52;2.58;;;2.15;;
13040;SDS011;6587;42.728;23.288;2023-07-29T14:27:21;2.33;;;2.13;;
13040;SDS011;6587;42.728;23.288;2023-07-29T14:29:47;3.08;;;2.00;;
13040;SDS011;6587;42.728;23.288;2023-07-29T14:32:14;2.00;;;1.80;;
13040;SDS011;6587;42.728;23.288;2023-07-29T14:34:41;2.90;;;2.13;;
13040;SDS011;6587;42.728;23.288;2023-07-29T14:37:08;2.03;;;1.75;;
13040;SDS011;6587;42.728;23.288;2023-07-29T14:39:35;2.33;;;2.13;;
13040;SDS011;6587;42.728;23.288;2023-07-29T14:42:02;2.30;;;2.10;;
13040;SDS011;6587;42.728;23.288;2023-07-29T14:44:30;3.15;;;2.00;;
13040;SDS011;6587;42.728;23.288;2023-07-29T14:46:57;2.45;;;2.05;;
13040;SDS011;6587;42.728;23.288;2023-07-29T14:49:24;3.03;;;2.03;;
13040;SDS011;6587;42.728;23.288;2023-07-29T14:51:51;3.70;;;2.30;;